Time;durP1;ratioP1;P1;durP2;ratioP2;P2;SDS_P1;SDS_P2;PMS_P1;PMS_P2;Temp;Humidity;BMP_temperature;BMP_pressure;BME280_temperature;BME280_humidity;BME280_pressure;Samples;Min_cycle;Max_cycle;Signal;HPM_P1;HPM_P2
2021/04/28 00:02:29;;;;;;;6.13;3.85;;;7.60;91.50;;;;;;5091060;28;20036;-87
2021/04/28 00:05:22;;;;;;;5.53;3.72;;;7.60;91.60;;;;;;5096352;28;20035;-87
2021/04/28 00:08:01;;;;;;;5.53;3.50;;;7.50;91.30;;;;;;5105422;28;20428;-87
2021/04/28 00:10:33;;;;;;;8.48;3.40;;;7.50;91.20;;;;;;5080707;28;20482;-86
2021/04/28 00:13:21;;;;;;;8.68;3.42;;;7.20;91.10;;;;;;5079197;28;20126;-87
2021/04/28 00:16:06;;;;;;;6.40;2.90;;;7.50;91.00;;;;;;5078649;28;20055;-87
2021/04/28 00:18:45;;;;;;;4.93;3.00;;;7.50;90.80;;;;;;5104829;28;20040;-86
2021/04/28 00:21:13;;;;;;;4.70;3.17;;;7.40;90.60;;;;;;5111988;28;20106;-87
2021/04/28 00:26:31;;;;;;;7.95;3.00;;;7.40;90.60;;;;;;5104289;28;20054;-90
2021/04/28 00:29:00;;;;;;;5.75;2.92;;;7.60;90.80;;;;;;5095338;28;20042;-88
2021/04/28 00:31:32;;;;;;;4.82;3.00;;;7.40;90.70;;;;;;5113618;28;20451;-89
2021/04/28 00:34:06;;;;;;;4.88;2.63;;;7.40;90.40;;;;;;5081375;28;20046;-89
2021/04/28 00:36:34;;;;;;;5.78;3.08;;;8.20;90.90;;;;;;5109021;28;20035;-88
2021/04/28 00:39:05;;;;;;;5.30;2.63;;;7.40;90.70;;;;;;5078082;28;20047;-88
2021/04/28 00:41:31;;;;;;;4.20;3.00;;;7.40;90.70;;;;;;5095548;28;20040;-89
2021/04/28 00:43:58;;;;;;;5.82;2.92;;;7.10;90.60;;;;;;5078871;28;20046;-89
2021/04/28 00:46:30;;;;;;;5.72;2.95;;;7.80;90.70;;;;;;5094815;28;20134;-85
2021/04/28 00:49:16;;;;;;;5.88;2.67;;;8.30;90.90;;;;;;5078818;28;20138;-85
2021/04/28 00:51:45;;;;;;;5.90;3.08;;;7.30;90.50;;;;;;5076245;28;20093;-86
2021/04/28 00:54:24;;;;;;;4.78;3.17;;;7.40;90.80;;;;;;5076908;28;20032;-86
2021/04/28 00:57:27;;;;;;;7.13;3.00;;;7.60;90.60;;;;;;5094626;28;20056;-84
2021/04/28 01:00:13;;;;;;;6.32;2.70;;;7.30;90.50;;;;;;5066566;28;20403;-85
2021/04/28 01:03:07;;;;;;;3.63;2.60;;;7.50;90.50;;;;;;5079391;28;20042;-91
2021/04/28 01:05:44;;;;;;;3.83;2.60;;;7.20;90.40;;;;;;5078352;28;20407;-90
2021/04/28 01:08:31;;;;;;;7.47;2.58;;;7.20;90.40;;;;;;5093257;28;20523;-90
2021/04/28 01:10:58;;;;;;;3.80;2.50;;;7.20;90.30;;;;;;5106237;28;20067;-72
2021/04/28 01:13:25;;;;;;;7.97;2.45;;;7.10;90.30;;;;;;5094394;28;20102;-72
2021/04/28 01:15:57;;;;;;;3.90;2.42;;;7.10;90.10;;;;;;5094778;28;20039;-72
2021/04/28 01:18:23;;;;;;;5.88;2.42;;;7.10;90.10;;;;;;5094577;28;20046;-73
2021/04/28 01:20:49;;;;;;;9.88;3.63;;;7.10;90.00;;;;;;5112331;28;20047;-73
2021/04/28 01:23:20;;;;;;;5.65;2.70;;;7.10;90.00;;;;;;5112449;28;20062;-72
2021/04/28 01:25:50;;;;;;;5.50;2.75;;;7.40;90.00;;;;;;5081639;28;20047;-72
2021/04/28 01:28:22;;;;;;;4.88;2.72;;;7.10;89.70;;;;;;5114267;28;20024;-73
2021/04/28 01:31:00;;;;;;;7.45;2.72;;;7.10;89.70;;;;;;5116341;28;20043;-74
2021/04/28 01:33:38;;;;;;;3.35;2.38;;;7.20;89.80;;;;;;5116351;28;20139;-72
2021/04/28 01:36:07;;;;;;;7.50;2.67;;;7.00;89.10;;;;;;5116361;28;20043;-73
2021/04/28 01:38:38;;;;;;;3.80;2.80;;;7.00;89.20;;;;;;5116378;28;20039;-72
2021/04/28 01:41:05;;;;;;;4.78;2.72;;;7.00;89.10;;;;;;5116258;28;20096;-73
2021/04/28 01:43:31;;;;;;;7.85;2.72;;;7.00;88.90;;;;;;5116104;28;20472;-72
2021/04/28 01:45:58;;;;;;;4.70;2.80;;;7.00;88.80;;;;;;5096650;28;20122;-72
2021/04/28 01:48:24;;;;;;;6.35;2.78;;;7.00;88.50;;;;;;5116293;28;20040;-72
2021/04/28 01:50:51;;;;;;;5.65;2.78;;;7.00;88.30;;;;;;5115619;28;20567;-72
2021/04/28 01:53:24;;;;;;;5.35;2.65;;;7.00;88.00;;;;;;5116445;28;20044;-72
2021/04/28 01:55:54;;;;;;;6.00;2.88;;;6.90;87.40;;;;;;5098098;28;20118;-71
2021/04/28 01:58:21;;;;;;;4.72;2.90;;;6.90;87.50;;;;;;5097562;28;20031;-72
2021/04/28 02:00:50;;;;;;;5.20;2.65;;;6.90;87.20;;;;;;5114137;28;20441;-71
2021/04/28 02:03:21;;;;;;;4.63;2.58;;;6.90;87.30;;;;;;5080115;28;20392;-71
2021/04/28 02:05:47;;;;;;;4.10;2.70;;;6.90;87.40;;;;;;5115614;28;20043;-72
2021/04/28 02:08:15;;;;;;;8.43;2.60;;;6.80;87.00;;;;;;5115727;28;20048;-72
2021/04/28 02:10:40;;;;;;;10.27;2.45;;;6.80;87.00;;;;;;5114211;28;20536;-72
2021/04/28 02:13:11;;;;;;;4.65;2.60;;;6.80;87.60;;;;;;5097984;28;20109;-71
2021/04/28 02:15:42;;;;;;;5.35;3.05;;;6.80;86.50;;;;;;5115938;28;20040;-72
2021/04/28 02:18:09;;;;;;;6.20;2.75;;;6.70;86.80;;;;;;5115147;28;20030;-72
2021/04/28 02:20:39;;;;;;;5.40;2.80;;;6.70;86.80;;;;;;5115225;28;20032;-72
2021/04/28 02:23:06;;;;;;;6.68;3.13;;;6.80;87.10;;;;;;5097796;28;20036;-73
2021/04/28 02:25:32;;;;;;;6.60;2.70;;;6.60;87.30;;;;;;5115670;28;20030;-72
2021/04/28 02:28:01;;;;;;;6.53;2.80;;;6.60;87.40;;;;;;5094394;28;20084;-73
2021/04/28 02:30:31;;;;;;;6.15;3.03;;;6.60;87.70;;;;;;5115263;28;20065;-73
2021/04/28 02:32:56;;;;;;;9.15;3.00;;;6.60;87.90;;;;;;5097074;28;20039;-72
2021/04/28 02:35:25;;;;;;;5.80;2.75;;;6.50;88.00;;;;;;5114179;28;20058;-72
2021/04/28 02:38:18;;;;;;;4.30;2.95;;;6.50;88.30;;;;;;5115334;28;20035;-73
2021/04/28 02:40:45;;;;;;;5.28;3.10;;;6.40;88.90;;;;;;5085531;28;20043;-73
2021/04/28 02:43:12;;;;;;;6.75;3.17;;;6.50;88.70;;;;;;5111068;28;20027;-72
2021/04/28 02:45:41;;;;;;;7.30;2.95;;;6.50;88.90;;;;;;5114738;28;20089;-73
2021/04/28 02:48:08;;;;;;;6.40;2.90;;;6.40;88.90;;;;;;5115098;28;20036;-72
2021/04/28 02:50:37;;;;;;;4.25;2.63;;;6.40;89.10;;;;;;5114964;28;20050;-73
2021/04/28 02:53:08;;;;;;;9.82;3.40;;;6.40;89.30;;;;;;5098062;28;20035;-73
2021/04/28 02:55:35;;;;;;;5.93;2.95;;;6.40;89.40;;;;;;5114987;28;20040;-73
2021/04/28 02:58:02;;;;;;;5.50;2.92;;;6.40;89.50;;;;;;5096650;28;20032;-73
2021/04/28 03:00:28;;;;;;;4.55;2.95;;;6.80;89.60;;;;;;5095453;28;20036;-73
2021/04/28 03:02:59;;;;;;;6.97;3.30;;;6.40;89.50;;;;;;5096294;28;20031;-73
2021/04/28 03:05:26;;;;;;;5.38;2.97;;;6.40;89.60;;;;;;5114728;28;20039;-73
2021/04/28 03:07:54;;;;;;;5.40;3.05;;;6.30;89.70;;;;;;5087789;28;20042;-72
2021/04/28 03:10:22;;;;;;;6.13;3.42;;;6.30;89.90;;;;;;5100706;28;20637;-73
2021/04/28 03:12:48;;;;;;;7.40;3.20;;;6.20;90.30;;;;;;5114527;28;20046;-72
2021/04/28 03:15:16;;;;;;;5.82;3.20;;;6.20;90.00;;;;;;5112992;28;20479;-72
2021/04/28 03:17:43;;;;;;;8.18;3.45;;;6.20;90.10;;;;;;5096182;28;20506;-72
2021/04/28 03:20:11;;;;;;;6.05;3.58;;;6.20;90.20;;;;;;5114539;28;20031;-72
2021/04/28 03:22:37;;;;;;;6.22;3.13;;;6.20;90.10;;;;;;5114578;28;20476;-72
2021/04/28 03:25:08;;;;;;;7.95;3.28;;;6.10;90.20;;;;;;5114116;28;20472;-73
2021/04/28 03:27:34;;;;;;;6.07;3.53;;;6.10;90.30;;;;;;5114415;28;20108;-72
2021/04/28 03:30:00;;;;;;;19.80;4.18;;;6.40;90.30;;;;;;5096240;28;20161;-72
2021/04/28 03:32:26;;;;;;;7.70;3.40;;;6.10;90.20;;;;;;5102563;28;20043;-73
2021/04/28 03:34:52;;;;;;;7.45;2.92;;;6.10;90.20;;;;;;5113826;28;20043;-74
2021/04/28 03:37:18;;;;;;;6.38;3.35;;;6.20;90.30;;;;;;5078693;28;20043;-73
2021/04/28 03:39:44;;;;;;;5.43;3.20;;;6.10;90.30;;;;;;5114259;28;20471;-73
2021/04/28 03:42:10;;;;;;;5.40;3.42;;;6.10;90.30;;;;;;5113796;28;20036;-73
2021/04/28 03:44:36;;;;;;;4.68;3.10;;;6.10;90.30;;;;;;5095977;28;20111;-73
2021/04/28 03:47:06;;;;;;;5.13;3.17;;;6.10;90.40;;;;;;5113659;28;20043;-74
2021/04/28 03:49:32;;;;;;;5.13;3.72;;;6.10;90.40;;;;;;5075828;28;20047;-75
2021/04/28 03:51:58;;;;;;;11.18;3.38;;;6.00;90.30;;;;;;5077440;28;20123;-73
2021/04/28 03:54:24;;;;;;;5.93;3.58;;;6.20;90.40;;;;;;5072851;28;20581;-72
2021/04/28 03:56:50;;;;;;;6.03;3.47;;;6.10;90.40;;;;;;5063828;28;20105;-71
2021/04/28 03:59:17;;;;;;;5.93;3.05;;;6.10;90.40;;;;;;5071793;28;20112;-72
2021/04/28 04:01:43;;;;;;;7.25;3.33;;;6.10;90.40;;;;;;5079409;28;20551;-72
2021/04/28 04:04:11;;;;;;;7.38;3.92;;;6.10;90.40;;;;;;5066924;28;20037;-72
2021/04/28 04:06:40;;;;;;;5.47;3.33;;;6.00;90.40;;;;;;5084737;28;20039;-71
2021/04/28 04:09:06;;;;;;;13.85;3.90;;;6.00;90.40;;;;;;5078498;28;20040;-71
2021/04/28 04:11:32;;;;;;;5.53;3.22;;;6.00;90.40;;;;;;5072660;28;20397;-72
2021/04/28 04:13:58;;;;;;;6.68;3.50;;;6.00;90.40;;;;;;5070146;28;20078;-71
2021/04/28 04:16:25;;;;;;;5.95;3.30;;;5.90;90.40;;;;;;5078108;28;20055;-72
2021/04/28 04:18:51;;;;;;;9.55;3.50;;;6.10;90.50;;;;;;5072274;28;20094;-72
2021/04/28 04:21:19;;;;;;;10.10;3.55;;;6.00;90.40;;;;;;5071857;28;20477;-72
2021/04/28 04:23:45;;;;;;;10.02;3.88;;;6.00;90.50;;;;;;5073662;28;20465;-72
2021/04/28 04:26:11;;;;;;;7.47;3.72;;;6.10;90.40;;;;;;5057771;28;20033;-72
2021/04/28 04:28:37;;;;;;;10.23;3.75;;;6.10;90.50;;;;;;5080271;28;20037;-73
2021/04/28 04:31:03;;;;;;;7.25;3.60;;;6.10;90.30;;;;;;5072494;28;20123;-73
2021/04/28 04:33:29;;;;;;;9.48;3.15;;;6.70;90.40;;;;;;5072557;28;20039;-73
2021/04/28 04:35:55;;;;;;;9.95;3.30;;;6.20;90.20;;;;;;5085704;28;20071;-72
2021/04/28 04:38:23;;;;;;;12.50;3.45;;;6.20;90.10;;;;;;5072430;28;20047;-72
2021/04/28 04:40:49;;;;;;;8.65;3.30;;;6.20;90.00;;;;;;5083876;28;20036;-72
2021/04/28 04:43:15;;;;;;;6.80;3.63;;;6.20;89.70;;;;;;5072740;28;20041;-73
2021/04/28 04:45:41;;;;;;;6.72;3.67;;;6.20;89.50;;;;;;5070797;28;20032;-72
2021/04/28 04:48:10;;;;;;;8.55;3.33;;;6.20;89.20;;;;;;5071680;28;20033;-73
2021/04/28 04:50:36;;;;;;;7.07;2.90;;;6.20;89.20;;;;;;5102053;28;20040;-74
2021/04/28 04:53:04;;;;;;;10.60;3.10;;;6.30;88.70;;;;;;5102205;28;20047;-73
2021/04/28 04:55:30;;;;;;;9.02;3.50;;;6.80;89.00;;;;;;5112963;28;20062;-74
2021/04/28 04:57:56;;;;;;;7.15;3.33;;;6.30;88.70;;;;;;5094464;28;20032;-73
2021/04/28 05:00:31;;;;;;;5.20;3.35;;;6.40;89.10;;;;;;5112196;28;20046;-73
2021/04/28 05:03:09;;;;;;;8.10;3.58;;;6.30;87.80;;;;;;5113322;28;20036;-73
2021/04/28 05:05:35;;;;;;;7.50;3.40;;;6.40;88.00;;;;;;5076376;28;20376;-72
2021/04/28 05:08:01;;;;;;;6.03;3.25;;;7.00;88.40;;;;;;5112793;28;20095;-72
2021/04/28 05:10:29;;;;;;;10.88;3.30;;;6.40;87.80;;;;;;5094935;28;20096;-73
2021/04/28 05:12:55;;;;;;;8.75;3.80;;;6.50;87.90;;;;;;5113101;28;20110;-73
2021/04/28 05:15:20;;;;;;;7.78;3.20;;;6.50;87.80;;;;;;5094528;28;20119;-73
2021/04/28 05:17:46;;;;;;;8.65;3.80;;;7.00;87.90;;;;;;5112558;28;20040;-73
2021/04/28 05:20:13;;;;;;;9.10;3.42;;;6.50;87.40;;;;;;5112422;28;20497;-73
2021/04/28 05:22:40;;;;;;;13.05;3.53;;;6.50;87.40;;;;;;5112365;28;20032;-73
2021/04/28 05:25:08;;;;;;;8.02;3.15;;;6.50;87.10;;;;;;5092542;28;20152;-73
2021/04/28 05:27:34;;;;;;;7.28;3.47;;;6.50;87.40;;;;;;5112418;28;20037;-73
2021/04/28 05:30:00;;;;;;;8.43;3.97;;;6.50;87.30;;;;;;5112533;28;20039;-73
2021/04/28 05:32:26;;;;;;;8.00;3.58;;;6.50;87.10;;;;;;5077780;28;20108;-73
2021/04/28 05:34:55;;;;;;;6.88;3.25;;;6.50;87.10;;;;;;5097867;28;20074;-75
2021/04/28 05:37:23;;;;;;;8.77;3.28;;;6.60;86.90;;;;;;5112356;28;20032;-72
2021/04/28 05:39:57;;;;;;;6.32;3.40;;;6.70;86.80;;;;;;5110244;28;20038;-76
2021/04/28 05:42:27;;;;;;;6.03;3.70;;;6.70;86.70;;;;;;5077262;28;20043;-78
2021/04/28 05:44:58;;;;;;;9.13;3.63;;;6.80;86.60;;;;;;5061358;28;20092;-79
2021/04/28 05:47:29;;;;;;;7.43;4.10;;;6.80;85.80;;;;;;5110624;28;20036;-78
2021/04/28 05:49:55;;;;;;;13.52;3.92;;;6.80;85.70;;;;;;5093872;28;20048;-79
2021/04/28 05:52:22;;;;;;;8.02;3.53;;;7.50;86.10;;;;;;5111926;28;20043;-78
2021/04/28 05:54:51;;;;;;;9.15;3.42;;;7.70;85.60;;;;;;5077882;28;20054;-76
2021/04/28 05:57:20;;;;;;;11.68;3.78;;;6.90;84.60;;;;;;5087548;28;20488;-72
2021/04/28 05:59:49;;;;;;;8.75;3.38;;;7.30;84.70;;;;;;5098096;28;20111;-72
2021/04/28 06:02:15;;;;;;;8.27;3.60;;;7.00;83.70;;;;;;5111462;28;20456;-72
2021/04/28 06:04:41;;;;;;;5.95;3.40;;;7.00;84.00;;;;;;5110644;28;20028;-72
2021/04/28 06:07:07;;;;;;;10.25;4.03;;;7.10;84.00;;;;;;5094110;28;20585;-72
2021/04/28 06:09:33;;;;;;;9.45;4.15;;;7.10;83.90;;;;;;5094066;28;20142;-73
2021/04/28 06:12:03;;;;;;;5.95;3.60;;;7.20;83.90;;;;;;5101810;28;20036;-73
2021/04/28 06:14:28;;;;;;;10.73;3.85;;;7.20;83.10;;;;;;5115640;28;20555;-73
2021/04/28 06:16:54;;;;;;;6.22;3.38;;;7.10;82.80;;;;;;5115616;28;20036;-74
2021/04/28 06:19:23;;;;;;;11.27;4.03;;;7.40;83.00;;;;;;5115891;28;20114;-77
2021/04/28 06:21:49;;;;;;;6.00;3.65;;;7.30;82.50;;;;;;5114145;28;20032;-77
2021/04/28 06:24:15;;;;;;;13.38;3.60;;;7.30;82.70;;;;;;5115195;28;20085;-78
2021/04/28 06:26:44;;;;;;;15.25;3.97;;;7.40;82.90;;;;;;5115030;28;20472;-72
2021/04/28 06:29:10;;;;;;;8.52;4.25;;;7.50;83.10;;;;;;5094786;28;20495;-72
2021/04/28 06:31:35;;;;;;;10.20;3.90;;;7.80;82.80;;;;;;5093238;28;20066;-77
2021/04/28 06:34:01;;;;;;;6.65;3.55;;;7.60;82.00;;;;;;5104258;28;20059;-77
2021/04/28 06:36:29;;;;;;;7.45;4.00;;;7.60;81.60;;;;;;5102728;28;20088;-76
2021/04/28 06:38:55;;;;;;;12.32;4.15;;;7.70;82.00;;;;;;5115096;27;20032;-77
2021/04/28 06:41:24;;;;;;;9.80;3.92;;;7.70;81.00;;;;;;5107671;28;20054;-76
2021/04/28 06:43:50;;;;;;;8.40;3.80;;;7.70;80.60;;;;;;5109966;28;20040;-76
2021/04/28 06:46:16;;;;;;;11.10;4.13;;;7.90;81.20;;;;;;5111987;27;20115;-72
2021/04/28 06:48:42;;;;;;;12.25;4.85;;;7.70;81.10;;;;;;5122025;27;20050;-71
2021/04/28 06:51:07;;;;;;;10.45;3.75;;;7.80;81.50;;;;;;5124269;27;20055;-71
2021/04/28 06:53:36;;;;;;;11.02;3.75;;;7.90;81.50;;;;;;5104246;27;20047;-71
2021/04/28 06:56:05;;;;;;;11.05;3.72;;;8.00;81.10;;;;;;5106219;27;20051;-77
2021/04/28 06:58:33;;;;;;;14.48;4.00;;;8.10;80.60;;;;;;5082630;27;20463;-77
2021/04/28 07:00:59;;;;;;;7.95;3.90;;;8.10;80.70;;;;;;5102116;27;20491;-76
2021/04/28 07:03:26;;;;;;;6.85;3.67;;;8.10;80.10;;;;;;5102194;27;20035;-77
2021/04/28 07:05:52;;;;;;;10.75;4.05;;;8.20;80.20;;;;;;5099715;27;20474;-77
2021/04/28 07:08:18;;;;;;;7.75;4.00;;;8.20;80.10;;;;;;5104389;27;20059;-77
2021/04/28 07:10:44;;;;;;;11.40;4.18;;;8.30;80.40;;;;;;5124104;27;20035;-71
2021/04/28 07:13:13;;;;;;;17.50;4.20;;;8.40;79.70;;;;;;5119471;27;20042;-73
2021/04/28 07:15:39;;;;;;;10.52;4.10;;;8.50;79.30;;;;;;5117954;27;20062;-73
2021/04/28 07:18:07;;;;;;;14.43;4.50;;;8.50;79.00;;;;;;5104180;27;20058;-73
2021/04/28 07:20:35;;;;;;;11.38;4.32;;;8.60;78.80;;;;;;5105955;27;20378;-74
2021/04/28 07:23:01;;;;;;;9.57;4.18;;;8.60;78.10;;;;;;5121156;27;20023;-75
2021/04/28 07:25:27;;;;;;;11.15;3.72;;;9.00;78.20;;;;;;5090995;27;20042;-76
2021/04/28 07:28:06;;;;;;;7.28;4.03;;;8.80;78.70;;;;;;5127715;27;20036;-74
2021/04/28 07:31:13;;;;;;;8.02;4.53;;;8.80;78.10;;;;;;5111788;27;20039;-77
2021/04/28 07:33:59;;;;;;;13.90;4.47;;;8.70;78.30;;;;;;5094308;27;20041;-74
2021/04/28 07:36:53;;;;;;;;;;;;;;;;;;;;;
2021/04/28 07:39:21;;;;;;;9.30;4.35;;;8.90;77.60;;;;;;5089599;27;20088;-74
2021/04/28 07:41:55;;;;;;;13.10;4.57;;;9.10;77.60;;;;;;5105925;27;20177;-74
2021/04/28 07:44:43;;;;;;;10.90;3.90;;;9.00;77.30;;;;;;5024994;28;20036;-75
2021/04/28 07:47:36;;;;;;;8.73;4.30;;;9.10;77.60;;;;;;5015469;28;20044;-74
2021/04/28 07:50:08;;;;;;;9.15;4.65;;;9.50;77.90;;;;;;5004665;28;20481;-74
2021/04/28 07:52:44;;;;;;;12.13;4.30;;;9.20;77.70;;;;;;5015472;28;20075;-75
2021/04/28 07:55:24;;;;;;;9.88;4.60;;;9.20;77.40;;;;;;5020969;28;20448;-76
2021/04/28 07:58:10;;;;;;;10.68;5.40;;;9.40;77.40;;;;;;5021692;28;20049;-74
2021/04/28 08:00:44;;;;;;;14.98;5.20;;;9.40;77.70;;;;;;4998003;28;20224;-74
2021/04/28 08:03:32;;;;;;;17.38;4.70;;;9.60;77.20;;;;;;5047733;28;20039;-74
2021/04/28 08:05:58;;;;;;;8.80;4.65;;;9.50;77.50;;;;;;5044925;28;20048;-74
2021/04/28 08:08:26;;;;;;;10.70;4.60;;;9.60;77.70;;;;;;5076239;28;20051;-74
2021/04/28 08:11:02;;;;;;;;;;;9.70;77.60;;;;;;5058158;28;20051;-74
2021/04/28 08:13:31;;;;;;;7.82;5.00;;;9.80;76.80;;;;;;5093121;28;19922;-77
2021/04/28 08:15:57;;;;;;;12.48;4.55;;;9.80;75.90;;;;;;5082213;28;20044;-76
2021/04/28 08:18:23;;;;;;;10.48;4.75;;;10.10;76.70;;;;;;5079409;28;20047;-79
2021/04/28 08:20:52;;;;;;;14.32;5.10;;;10.00;76.90;;;;;;5095866;28;20048;-79
2021/04/28 08:23:18;;;;;;;16.77;5.20;;;9.80;76.00;;;;;;5103118;28;20490;-75
2021/04/28 08:25:44;;;;;;;15.05;5.70;;;10.00;76.70;;;;;;5104941;28;20038;-75
2021/04/28 08:28:13;;;;;;;13.45;5.28;;;10.10;77.10;;;;;;5104186;28;20038;-75
2021/04/28 08:30:39;;;;;;;10.32;4.88;;;10.30;75.50;;;;;;5070695;28;20039;-75
2021/04/28 08:33:06;;;;;;;14.85;5.43;;;10.20;76.30;;;;;;5101267;28;20071;-80
2021/04/28 08:35:31;;;;;;;13.07;5.00;;;10.30;76.40;;;;;;5104866;28;20111;-79
2021/04/28 08:38:00;;;;;;;22.85;5.75;;;10.40;76.10;;;;;;5107288;28;20055;-76
2021/04/28 08:40:35;;;;;;;16.42;6.28;;;10.50;75.50;;;;;;5099345;28;20043;-75
2021/04/28 08:43:01;;;;;;;11.70;5.55;;;10.60;75.40;;;;;;5100803;28;20032;-79
2021/04/28 08:45:27;;;;;;;9.43;5.32;;;10.60;73.90;;;;;;5099695;28;20616;-79
2021/04/28 08:47:53;;;;;;;13.55;5.10;;;10.70;74.50;;;;;;5103735;28;20043;-79
2021/04/28 08:50:26;;;;;;;9.73;5.75;;;10.70;73.90;;;;;;5096437;28;20571;-75
2021/04/28 08:52:55;;;;;;;12.25;6.05;;;10.80;70.80;;;;;;5099667;28;20498;-80
2021/04/28 08:55:23;;;;;;;10.43;5.40;;;11.10;72.70;;;;;;5080015;28;20036;-80
2021/04/28 08:57:51;;;;;;;11.80;5.70;;;11.00;70.70;;;;;;5095952;28;20039;-79
2021/04/28 09:00:18;;;;;;;14.00;5.88;;;11.00;71.80;;;;;;5097524;28;20456;-74
2021/04/28 09:02:56;;;;;;;20.08;5.60;;;11.10;72.70;;;;;;5097553;28;20036;-81
2021/04/28 09:05:23;;;;;;;10.70;5.57;;;11.70;73.40;;;;;;5102400;28;20119;-80
2021/04/28 09:07:50;;;;;;;14.77;5.60;;;11.80;73.30;;;;;;5102341;28;20410;-80
2021/04/28 09:10:22;;;;;;;10.32;5.40;;;11.20;72.80;;;;;;5097491;28;20060;-80
2021/04/28 09:12:59;;;;;;;14.15;5.63;;;11.30;71.50;;;;;;5097479;28;20391;-80
2021/04/28 09:15:44;;;;;;;10.95;5.82;;;11.40;70.80;;;;;;5091513;28;20051;-80
2021/04/28 09:18:13;;;;;;;16.13;6.15;;;11.50;69.50;;;;;;5091380;28;20036;-80
2021/04/28 09:20:45;;;;;;;11.23;5.80;;;11.50;69.10;;;;;;5091919;28;20525;-80
2021/04/28 09:23:42;;;;;;;23.27;6.10;;;11.60;67.80;;;;;;5078146;28;20036;-81
2021/04/28 09:26:16;;;;;;;12.93;6.25;;;11.60;66.20;;;;;;5080385;28;20076;-80
2021/04/28 09:28:51;;;;;;;18.25;5.95;;;11.60;66.70;;;;;;5092111;28;20498;-80
2021/04/28 09:31:18;;;;;;;13.10;5.75;;;11.70;65.60;;;;;;5071467;28;20032;-80
2021/04/28 09:33:54;;;;;;;12.80;6.53;;;12.10;65.90;;;;;;5096717;28;20040;-79
2021/04/28 09:36:39;;;;;;;12.05;5.60;;;11.80;64.40;;;;;;5101494;28;20404;-79
2021/04/28 09:39:08;;;;;;;12.85;5.53;;;11.90;64.50;;;;;;5098275;28;20028;-75
2021/04/28 09:41:50;;;;;;;10.90;6.10;;;11.90;65.70;;;;;;5098474;28;20044;-80
2021/04/28 09:44:16;;;;;;;16.58;6.25;;;12.00;64.80;;;;;;5094259;28;20039;-79
2021/04/28 09:47:05;;;;;;;13.30;6.25;;;12.00;64.50;;;;;;5098830;28;20040;-79
2021/04/28 09:49:49;;;;;;;11.13;5.80;;;12.10;66.00;;;;;;5105386;27;20051;-79
2021/04/28 09:52:29;;;;;;;12.50;5.75;;;12.20;64.60;;;;;;5121165;27;20024;-79
2021/04/28 09:54:59;;;;;;;12.20;6.55;;;12.30;64.20;;;;;;5126106;27;20399;-75
2021/04/28 09:57:42;;;;;;;13.68;6.60;;;12.20;63.20;;;;;;5127089;27;20035;-75
2021/04/28 10:00:28;;;;;;;10.90;6.07;;;12.30;64.70;;;;;;5112354;27;20122;-76
2021/04/28 10:03:41;;;;;;;9.38;6.15;;;12.50;63.30;;;;;;5106130;27;20065;-79
2021/04/28 10:06:07;;;;;;;10.18;5.88;;;12.50;62.20;;;;;;5123685;27;20035;-73
2021/04/28 10:08:33;;;;;;;13.20;6.40;;;12.60;62.40;;;;;;5125939;27;20462;-73
2021/04/28 10:11:02;;;;;;;16.10;6.28;;;12.60;59.60;;;;;;5090904;27;20028;-72
2021/04/28 10:13:28;;;;;;;22.90;6.15;;;12.60;59.60;;;;;;5124945;27;20039;-72
2021/04/28 10:15:54;;;;;;;18.40;5.60;;;12.60;59.40;;;;;;5122528;27;20038;-78
2021/04/28 10:18:22;;;;;;;10.40;5.65;;;12.60;57.80;;;;;;5125553;27;20035;-77
2021/04/28 10:20:50;;;;;;;11.88;5.43;;;12.70;56.90;;;;;;5124973;27;20043;-76
2021/04/28 10:23:18;;;;;;;13.10;5.55;;;12.90;56.30;;;;;;5078390;27;20130;-72
2021/04/28 10:25:50;;;;;;;13.57;5.50;;;12.80;55.40;;;;;;5105296;27;20043;-78
2021/04/28 10:28:16;;;;;;;10.90;6.60;;;12.80;55.40;;;;;;5114942;27;20043;-74
2021/04/28 10:30:48;;;;;;;11.82;5.85;;;12.90;56.00;;;;;;5122215;27;20487;-74
2021/04/28 10:33:20;;;;;;;8.65;5.75;;;12.90;54.70;;;;;;5107198;27;20142;-74
2021/04/28 10:35:47;;;;;;;12.20;5.70;;;12.90;54.30;;;;;;5124896;27;20039;-74
2021/04/28 10:38:19;;;;;;;11.45;5.32;;;13.50;54.10;;;;;;5129003;27;20042;-77
2021/04/28 10:40:48;;;;;;;9.05;5.13;;;13.00;53.30;;;;;;5127321;27;20040;-77
2021/04/28 10:43:17;;;;;;;7.63;5.30;;;13.00;53.50;;;;;;5092708;27;20412;-74
2021/04/28 10:45:43;;;;;;;19.90;6.43;;;13.00;53.10;;;;;;5108261;27;20035;-74
2021/04/28 10:48:12;;;;;;;14.27;5.70;;;13.10;52.20;;;;;;5127989;27;20035;-77
2021/04/28 10:50:40;;;;;;;11.25;5.60;;;13.10;52.80;;;;;;5127171;27;20467;-77
2021/04/28 10:53:20;;;;;;;7.78;5.70;;;13.20;52.00;;;;;;5091400;27;20131;-76
2021/04/28 10:55:55;;;;;;;10.68;5.63;;;13.20;52.30;;;;;;5123863;27;20047;-76
2021/04/28 10:58:30;;;;;;;18.10;6.23;;;13.20;52.20;;;;;;5101711;27;20276;-77
2021/04/28 11:01:02;;;;;;;12.07;5.80;;;13.30;52.60;;;;;;5127283;27;20091;-73
2021/04/28 11:03:46;;;;;;;14.07;5.57;;;13.30;53.00;;;;;;5125642;27;20036;-76
2021/04/28 11:06:25;;;;;;;10.30;6.15;;;13.40;53.70;;;;;;5125106;27;20687;-74
2021/04/28 11:09:00;;;;;;;13.25;6.25;;;13.40;52.50;;;;;;5107713;27;20168;-73
2021/04/28 11:14:30;;;;;;;9.23;5.97;;;13.40;52.50;;;;;;5123600;27;20038;-73
2021/04/28 11:17:14;;;;;;;11.55;5.93;;;13.50;52.90;;;;;;5106669;27;20399;-73
2021/04/28 11:19:43;;;;;;;11.65;5.82;;;13.60;53.40;;;;;;5124150;27;20035;-73
2021/04/28 11:22:18;;;;;;;11.60;6.65;;;13.50;52.00;;;;;;5126293;27;20031;-76
2021/04/28 11:24:59;;;;;;;9.77;5.70;;;13.40;51.80;;;;;;5127474;27;20127;-76
2021/04/28 11:28:05;;;;;;;18.52;6.20;;;13.50;52.00;;;;;;5112034;27;20035;-77
2021/04/28 11:30:48;;;;;;;7.07;5.78;;;13.60;50.20;;;;;;5081696;28;20035;-73
2021/04/28 11:33:30;;;;;;;11.20;6.00;;;13.70;50.80;;;;;;5114101;28;20042;-72
2021/04/28 11:35:56;;;;;;;12.23;5.82;;;13.70;52.30;;;;;;5114300;28;20042;-73
2021/04/28 11:38:28;;;;;;;9.75;5.90;;;13.90;51.70;;;;;;5095776;28;20035;-73
2021/04/28 11:41:03;;;;;;;12.50;6.15;;;13.80;51.90;;;;;;5095356;28;20055;-73
2021/04/28 11:43:34;;;;;;;10.27;5.90;;;14.10;52.10;;;;;;5091052;28;20051;-78
2021/04/28 11:46:36;;;;;;;11.95;6.60;;;13.80;52.20;;;;;;5094436;28;20048;-73
2021/04/28 11:49:20;;;;;;;11.57;6.30;;;13.70;52.20;;;;;;5095801;28;20074;-77
2021/04/28 11:51:57;;;;;;;11.25;6.10;;;13.70;52.30;;;;;;5113825;28;20420;-78
2021/04/28 11:54:26;;;;;;;10.50;5.75;;;13.80;52.20;;;;;;5113599;28;20035;-73
2021/04/28 11:56:52;;;;;;;14.65;6.40;;;13.70;52.60;;;;;;5083332;28;20055;-73
2021/04/28 11:59:23;;;;;;;9.98;6.53;;;13.80;53.00;;;;;;5099277;28;20055;-77
2021/04/28 12:02:00;;;;;;;14.93;6.68;;;14.00;52.80;;;;;;5113861;28;20040;-76
2021/04/28 12:04:35;;;;;;;8.88;6.28;;;14.10;52.60;;;;;;5095019;28;20039;-78
2021/04/28 12:07:05;;;;;;;14.13;6.57;;;14.20;52.50;;;;;;5113338;28;20111;-77
2021/04/28 12:09:38;;;;;;;11.77;7.30;;;14.10;52.50;;;;;;5113219;28;20467;-78
2021/04/28 12:12:08;;;;;;;15.52;6.85;;;14.20;52.50;;;;;;5095728;28;20501;-78
2021/04/28 12:14:34;;;;;;;12.75;6.90;;;14.20;52.60;;;;;;5096362;28;20036;-77
2021/04/28 12:16:59;;;;;;;12.35;7.13;;;14.30;52.90;;;;;;5113569;28;20050;-73
2021/04/28 12:19:27;;;;;;;12.05;6.57;;;14.30;51.80;;;;;;5111999;28;20425;-78
2021/04/28 12:22:01;;;;;;;9.95;6.70;;;14.20;51.20;;;;;;5113295;28;20044;-78
2021/04/28 12:24:30;;;;;;;13.45;6.68;;;14.20;52.00;;;;;;5114037;28;20039;-78
2021/04/28 12:27:26;;;;;;;11.60;6.95;;;14.40;51.90;;;;;;5112781;28;20475;-78
2021/04/28 12:29:57;;;;;;;12.63;6.35;;;14.10;50.20;;;;;;5113043;28;20093;-74
2021/04/28 12:32:35;;;;;;;10.40;6.43;;;14.00;51.00;;;;;;5112888;28;20080;-74
2021/04/28 12:35:14;;;;;;;11.70;7.00;;;14.20;51.20;;;;;;5102766;28;20095;-74
2021/04/28 12:37:42;;;;;;;12.10;6.55;;;14.30;50.80;;;;;;5113112;28;20472;-77
2021/04/28 12:40:11;;;;;;;10.95;6.38;;;14.50;51.80;;;;;;5113151;28;20484;-78
2021/04/28 12:42:39;;;;;;;10.13;6.18;;;14.40;48.80;;;;;;5078042;28;20036;-77
2021/04/28 12:45:14;;;;;;;9.63;6.40;;;14.50;49.10;;;;;;5112302;28;20039;-77
2021/04/28 12:47:40;;;;;;;12.35;6.60;;;14.50;47.80;;;;;;5094801;28;20201;-77
2021/04/28 12:50:21;;;;;;;9.43;6.68;;;14.50;48.90;;;;;;5112647;28;20048;-78
2021/04/28 12:52:48;;;;;;;10.63;6.35;;;14.60;48.30;;;;;;5109323;28;20043;-78
2021/04/28 12:55:41;;;;;;;20.95;6.97;;;14.50;48.90;;;;;;5112839;28;20043;-78
2021/04/28 12:58:11;;;;;;;12.93;7.53;;;14.50;49.70;;;;;;5080667;28;20048;-78
2021/04/28 13:00:55;;;;;;;14.10;6.68;;;14.50;48.30;;;;;;5112737;28;20039;-76
2021/04/28 13:03:24;;;;;;;15.65;6.57;;;14.60;48.10;;;;;;5099521;28;20035;-73
2021/04/28 13:05:53;;;;;;;8.88;6.80;;;14.80;48.40;;;;;;5112834;28;20499;-78
2021/04/28 13:08:53;;;;;;;10.50;6.30;;;14.90;48.90;;;;;;5112623;28;20027;-78
2021/04/28 13:11:32;;;;;;;14.95;7.35;;;15.00;48.30;;;;;;5091557;28;20071;-76
2021/04/28 13:13:59;;;;;;;12.82;7.53;;;14.80;56.80;;;;;;5087793;28;20050;-76
2021/04/28 13:16:28;;;;;;;13.07;7.30;;;14.90;60.10;;;;;;5121642;28;20403;-73
2021/04/28 13:19:05;;;;;;;13.73;7.53;;;14.80;59.60;;;;;;5099668;27;20047;-76